createdAt,value
2023-05-08T00:00:14.729Z,8.60
2023-05-08T00:02:43.263Z,9.23
2023-05-08T00:05:11.077Z,9.27
2023-05-08T00:07:38.885Z,8.43
2023-05-08T00:10:10.783Z,8.02
2023-05-08T00:12:39.257Z,7.47
2023-05-08T00:15:08.045Z,8.18
2023-05-08T00:17:37.588Z,9.35
2023-05-08T00:20:07.123Z,8.35
2023-05-08T00:22:34.817Z,9.65
2023-05-08T00:25:03.147Z,9.07
2023-05-08T00:27:32.403Z,8.43
2023-05-08T00:30:01.490Z,8.70
2023-05-08T00:32:30.046Z,8.35
2023-05-08T00:51:55.405Z,8.38
2023-05-08T00:54:23.496Z,8.52
2023-05-08T00:56:54.618Z,10.13
2023-05-08T00:59:23.202Z,8.87
2023-05-08T01:01:51.838Z,9.25
2023-05-08T01:04:22.084Z,8.75
2023-05-08T01:06:50.331Z,8.77
2023-05-08T01:09:19.366Z,8.60
2023-05-08T01:11:53.304Z,8.32
2023-05-08T01:14:25.959Z,8.30
2023-05-08T01:16:59.648Z,8.95
2023-05-08T01:19:54.476Z,8.25
2023-05-08T01:22:40.252Z,9.45
2023-05-08T01:25:38.374Z,9.88
2023-05-08T01:28:55.732Z,9.43
2023-05-08T01:31:32.405Z,9.32
2023-05-08T01:34:07.722Z,8.40
2023-05-08T01:36:42.517Z,9.95
2023-05-08T01:39:37.456Z,8.80
2023-05-08T01:42:08.950Z,9.25
2023-05-08T01:47:16.389Z,8.82
2023-05-08T01:52:18.572Z,8.23
2023-05-08T01:54:51.182Z,11.05
2023-05-08T01:57:20.821Z,8.32
2023-05-08T01:59:50.917Z,8.65
2023-05-08T02:02:19.961Z,9.05
2023-05-08T02:04:50.322Z,9.68
2023-05-08T02:07:18.479Z,8.90
2023-05-08T02:09:49.326Z,9.38
2023-05-08T02:12:18.368Z,8.95
2023-05-08T02:14:49.073Z,8.55
2023-05-08T02:17:18.556Z,9.18
2023-05-08T02:19:50.621Z,9.50
2023-05-08T02:22:22.383Z,9.93
2023-05-08T02:24:56.192Z,10.18
2023-05-08T02:27:26.904Z,9.88
2023-05-08T02:29:56.177Z,8.75
2023-05-08T02:32:26.606Z,9.48
2023-05-08T02:35:03.053Z,9.15
2023-05-08T02:37:36.387Z,9.32
2023-05-08T02:40:07.350Z,9.25
2023-05-08T02:42:39.468Z,9.17
2023-05-08T02:45:12.136Z,9.87
2023-05-08T02:47:47.118Z,10.10
2023-05-08T02:50:24.407Z,10.90
2023-05-08T02:52:55.644Z,8.98
2023-05-08T02:55:34.801Z,10.70
2023-05-08T02:58:13.019Z,8.32
2023-05-08T03:00:46.158Z,8.57
2023-05-08T03:03:20.454Z,10.30
2023-05-08T03:05:53.548Z,8.77
2023-05-08T03:08:26.765Z,8.82
2023-05-08T03:10:58.859Z,9.60
2023-05-08T03:14:17.349Z,9.07
2023-05-08T03:16:48.565Z,9.40
2023-05-08T03:19:23.385Z,8.20
2023-05-08T03:21:56.877Z,8.73
2023-05-08T03:24:26.618Z,9.20
2023-05-08T03:26:56.376Z,9.65
2023-05-08T03:29:27.058Z,8.88
2023-05-08T03:31:56.982Z,9.20
2023-05-08T03:34:25.431Z,8.90
2023-05-08T03:36:54.790Z,8.90
2023-05-08T03:39:26.400Z,9.57
2023-05-08T03:41:56.768Z,10.50
2023-05-08T03:44:26.249Z,9.82
2023-05-08T03:46:57.830Z,9.23
2023-05-08T03:49:28.379Z,8.88
2023-05-08T03:52:01.836Z,8.88
2023-05-08T03:54:30.202Z,9.38
2023-05-08T03:57:23.163Z,9.50
2023-05-08T04:00:01.061Z,8.63
2023-05-08T04:02:35.150Z,9.07
2023-05-08T04:05:15.536Z,9.00
2023-05-08T04:07:51.734Z,9.30
2023-05-08T04:10:25.554Z,10.63
2023-05-08T04:12:58.686Z,9.40
2023-05-08T04:15:30.100Z,9.73
2023-05-08T04:18:04.207Z,8.60
2023-05-08T04:20:34.409Z,9.05
2023-05-08T04:23:05.441Z,9.43
2023-05-08T04:25:37.078Z,9.73
2023-05-08T04:28:06.379Z,9.35
2023-05-08T04:30:35.560Z,8.70
2023-05-08T04:33:05.722Z,10.30
2023-05-08T04:35:34.916Z,8.75
2023-05-08T04:38:04.728Z,10.25
2023-05-08T04:40:33.207Z,9.52
2023-05-08T04:43:01.829Z,9.15
2023-05-08T04:45:31.295Z,8.55
2023-05-08T04:47:59.558Z,10.50
2023-05-08T04:50:27.480Z,9.23
2023-05-08T04:52:55.689Z,9.43
2023-05-08T04:55:25.416Z,9.23
2023-05-08T04:57:53.495Z,9.38
2023-05-08T05:00:23.544Z,8.77
2023-05-08T05:02:51.643Z,9.13
2023-05-08T05:05:19.577Z,8.77
2023-05-08T05:07:47.376Z,9.52
2023-05-08T05:10:18.505Z,9.40
2023-05-08T05:12:48.650Z,10.43
2023-05-08T05:15:16.600Z,10.20
2023-05-08T05:17:44.258Z,11.25
2023-05-08T05:20:13.603Z,9.25
2023-05-08T05:22:42.460Z,8.95
2023-05-08T05:25:10.874Z,10.77
2023-05-08T05:27:39.045Z,9.98
2023-05-08T05:30:10.450Z,10.30
2023-05-08T05:32:39.326Z,9.95
2023-05-08T05:35:08.713Z,10.25
2023-05-08T05:37:37.600Z,9.88
2023-05-08T05:40:06.424Z,10.75
2023-05-08T05:42:35.718Z,10.48
2023-05-08T05:45:32.528Z,9.15
2023-05-08T05:48:01.057Z,9.27
2023-05-08T05:50:29.402Z,9.73
2023-05-08T05:52:57.961Z,9.00
2023-05-08T05:55:28.409Z,9.00
2023-05-08T05:57:58.856Z,9.43
2023-05-08T06:00:53.403Z,10.15
2023-05-08T06:03:21.549Z,11.02
2023-05-08T06:06:16.404Z,10.02
2023-05-08T06:08:44.145Z,9.88
2023-05-08T06:11:12.651Z,9.93
2023-05-08T06:13:41.393Z,9.27
2023-05-08T06:16:10.730Z,9.68
2023-05-08T06:18:38.298Z,8.48
2023-05-08T06:21:06.009Z,8.65
2023-05-08T06:23:33.699Z,8.93
2023-05-08T06:26:01.268Z,8.88
2023-05-08T06:28:29.507Z,8.73
2023-05-08T06:30:57.293Z,9.27
2023-05-08T06:33:27.025Z,9.05
2023-05-08T06:35:55.061Z,10.70
2023-05-08T06:41:15.415Z,10.48
2023-05-08T06:43:45.396Z,9.32
2023-05-08T06:46:13.078Z,9.75
2023-05-08T06:48:42.234Z,10.07
2023-05-08T06:51:09.850Z,9.90
2023-05-08T06:53:38.407Z,10.85
2023-05-08T06:56:06.809Z,10.23
2023-05-08T06:58:36.396Z,9.77
2023-05-08T07:01:04.097Z,10.23
2023-05-08T07:03:34.428Z,9.45
2023-05-08T07:06:04.468Z,10.10
2023-05-08T07:08:32.800Z,11.30
2023-05-08T07:11:00.408Z,7.93
2023-05-08T07:13:28.581Z,8.75
2023-05-08T07:15:58.452Z,8.35
2023-05-08T07:18:27.027Z,10.43
2023-05-08T07:20:54.623Z,10.63
2023-05-08T07:23:23.755Z,9.68
2023-05-08T07:25:53.429Z,10.55
2023-05-08T07:28:21.010Z,9.50
2023-05-08T07:30:52.403Z,10.27
2023-05-08T07:33:20.304Z,10.20
2023-05-08T07:35:47.888Z,11.52
2023-05-08T07:38:15.448Z,11.13
2023-05-08T07:40:44.530Z,9.25
2023-05-08T07:43:13.101Z,9.57
2023-05-08T07:45:40.899Z,10.75
2023-05-08T07:48:08.860Z,10.10
2023-05-08T07:50:37.263Z,9.38
2023-05-08T07:53:04.931Z,9.40
2023-05-08T07:55:32.773Z,8.95
2023-05-08T07:58:04.404Z,8.75
2023-05-08T08:00:32.070Z,9.60
2023-05-08T08:03:00.684Z,9.60
2023-05-08T08:05:28.636Z,10.38
2023-05-08T08:07:56.231Z,9.38
2023-05-08T08:10:23.966Z,10.57
2023-05-08T08:12:52.528Z,8.98
2023-05-08T08:15:21.870Z,9.35
2023-05-08T08:17:49.802Z,8.73
2023-05-08T08:20:18.256Z,9.82
2023-05-08T08:22:45.864Z,7.72
2023-05-08T08:25:15.508Z,8.80
2023-05-08T08:27:44.847Z,8.35
2023-05-08T08:30:18.282Z,11.88
2023-05-08T08:32:49.460Z,8.70
2023-05-08T08:35:18.198Z,10.10
2023-05-08T08:37:46.067Z,10.07
2023-05-08T08:40:13.900Z,10.65
2023-05-08T08:42:43.433Z,9.45
2023-05-08T08:45:12.137Z,10.38
2023-05-08T08:47:41.539Z,9.20
2023-05-08T08:50:14.714Z,9.20
2023-05-08T08:52:49.206Z,10.70
2023-05-08T08:55:18.922Z,10.27
2023-05-08T08:57:55.593Z,10.85
2023-05-08T09:00:26.725Z,9.88
2023-05-08T09:02:54.652Z,8.50
2023-05-08T09:05:26.473Z,9.38
2023-05-08T09:07:56.415Z,10.52
2023-05-08T09:10:25.713Z,8.77
2023-05-08T09:15:49.003Z,9.73
2023-05-08T09:18:17.426Z,10.05
2023-05-08T09:20:49.791Z,10.13
2023-05-08T09:23:18.024Z,10.82
2023-05-08T09:25:46.517Z,9.57
2023-05-08T09:28:20.574Z,8.70
2023-05-08T09:30:56.847Z,9.27
2023-05-08T09:33:27.520Z,8.80
2023-05-08T09:35:58.641Z,13.00
2023-05-08T09:38:35.480Z,9.52
2023-05-08T09:41:10.941Z,10.52
2023-05-08T09:43:39.254Z,8.82
2023-05-08T09:46:22.913Z,9.32
2023-05-08T09:48:50.912Z,9.13
2023-05-08T09:51:20.429Z,9.57
2023-05-08T09:53:48.249Z,8.35
2023-05-08T09:56:16.007Z,9.60
2023-05-08T09:58:46.544Z,8.48
2023-05-08T10:01:29.615Z,9.30
2023-05-08T10:03:57.289Z,9.10
2023-05-08T10:06:28.275Z,9.10
2023-05-08T10:09:12.141Z,9.85
2023-05-08T10:11:40.745Z,8.48
2023-05-08T10:14:10.511Z,9.75
2023-05-08T10:16:42.802Z,9.70
2023-05-08T10:19:17.505Z,9.07
2023-05-08T10:21:50.435Z,10.27
2023-05-08T10:24:21.058Z,9.57
2023-05-08T10:27:06.178Z,9.73
2023-05-08T10:29:43.379Z,9.38
2023-05-08T10:32:11.644Z,10.70
2023-05-08T10:34:41.494Z,9.27
2023-05-08T10:37:11.683Z,9.88
2023-05-08T10:39:41.216Z,11.57
2023-05-08T10:42:10.433Z,10.02
2023-05-08T10:44:39.420Z,10.52
2023-05-08T10:47:14.159Z,11.25
2023-05-08T10:49:50.479Z,9.85
2023-05-08T10:52:31.513Z,10.00
2023-05-08T10:55:17.557Z,10.18
2023-05-08T10:58:03.738Z,10.60
2023-05-08T11:01:13.803Z,10.68
2023-05-08T11:03:44.165Z,9.70
2023-05-08T11:06:12.793Z,12.30
2023-05-08T11:08:52.445Z,12.18
2023-05-08T11:11:27.731Z,12.00
2023-05-08T11:14:00.765Z,11.88
2023-05-08T11:17:05.113Z,12.10
2023-05-08T11:19:33.525Z,12.82
2023-05-08T11:22:25.835Z,13.10
2023-05-08T11:24:59.796Z,13.32
2023-05-08T11:27:38.705Z,12.35
2023-05-08T11:30:38.565Z,12.65
2023-05-08T11:33:17.109Z,13.50
2023-05-08T11:35:51.562Z,13.25
2023-05-08T11:38:27.509Z,12.95
2023-05-08T11:41:08.131Z,13.70
2023-05-08T11:44:17.648Z,12.25
2023-05-08T11:46:50.735Z,11.85
2023-05-08T11:49:24.505Z,11.48
2023-05-08T11:51:55.172Z,11.27
2023-05-08T11:54:24.450Z,10.73
2023-05-08T11:56:55.114Z,11.15
2023-05-08T11:59:22.975Z,10.80
2023-05-08T12:04:24.562Z,12.18
2023-05-08T12:06:58.413Z,12.32
2023-05-08T12:09:27.145Z,11.18
2023-05-08T12:12:00.431Z,11.48
2023-05-08T12:14:28.444Z,10.70
2023-05-08T12:16:56.091Z,10.77
2023-05-08T12:19:24.468Z,9.95
2023-05-08T12:21:52.869Z,9.73
2023-05-08T12:24:23.095Z,10.63
2023-05-08T12:26:54.128Z,11.82
2023-05-08T12:29:24.003Z,9.93
2023-05-08T12:31:54.499Z,11.18
2023-05-08T12:34:23.477Z,9.85
2023-05-08T12:37:02.819Z,9.75
2023-05-08T12:39:37.591Z,8.90
2023-05-08T12:42:06.460Z,10.00
2023-05-08T12:44:36.259Z,9.02
2023-05-08T12:47:06.020Z,9.77
2023-05-08T12:49:33.986Z,10.38
2023-05-08T12:52:03.608Z,10.00
2023-05-08T12:54:37.028Z,9.55
2023-05-08T12:57:10.904Z,11.32
2023-05-08T12:59:40.883Z,11.27
2023-05-08T13:02:14.365Z,10.95
2023-05-08T13:04:42.146Z,10.88
2023-05-08T13:07:10.566Z,10.77
2023-05-08T13:09:39.581Z,10.95
2023-05-08T13:12:08.491Z,10.45
2023-05-08T13:14:36.063Z,10.70
2023-05-08T13:17:05.004Z,11.00
2023-05-08T13:19:32.543Z,10.07
2023-05-08T13:22:01.839Z,10.85
2023-05-08T13:24:29.536Z,10.85
2023-05-08T13:27:01.444Z,11.40
2023-05-08T13:29:29.528Z,11.15
2023-05-08T13:31:57.987Z,11.30
2023-05-08T13:34:28.477Z,12.07
2023-05-08T13:36:57.449Z,11.05
2023-05-08T13:39:25.036Z,11.10
2023-05-08T13:41:54.512Z,10.32
2023-05-08T13:44:22.087Z,11.10
2023-05-08T13:46:50.008Z,12.02
2023-05-08T13:49:19.144Z,12.93
2023-05-08T13:51:56.440Z,11.30
2023-05-08T13:54:26.545Z,11.38
2023-05-08T13:56:54.145Z,11.82
2023-05-08T13:59:21.920Z,10.65
2023-05-08T14:01:50.906Z,11.05
2023-05-08T14:04:19.100Z,10.85
2023-05-08T14:06:48.279Z,10.15
2023-05-08T14:09:15.837Z,9.35
2023-05-08T14:11:44.076Z,10.80
2023-05-08T14:14:11.640Z,9.35
2023-05-08T14:16:40.147Z,9.05
2023-05-08T14:19:07.816Z,9.07
2023-05-08T14:21:36.702Z,11.88
2023-05-08T14:24:06.604Z,9.88
2023-05-08T14:26:36.551Z,10.73
2023-05-08T14:29:05.104Z,10.77
2023-05-08T14:31:32.769Z,10.80
2023-05-08T14:34:01.153Z,11.52
2023-05-08T14:36:28.731Z,11.75
2023-05-08T14:38:57.561Z,11.82
2023-05-08T14:41:29.961Z,13.48
2023-05-08T14:43:58.759Z,11.48
2023-05-08T14:46:26.510Z,10.85
2023-05-08T14:49:32.763Z,9.32
2023-05-08T14:52:05.585Z,8.93
2023-05-08T14:55:01.670Z,8.52
2023-05-08T14:57:30.833Z,7.72
2023-05-08T14:59:58.410Z,7.10
2023-05-08T15:02:27.134Z,8.65
2023-05-08T15:04:55.600Z,8.02
2023-05-08T15:07:23.204Z,8.25
2023-05-08T15:09:53.464Z,7.10
2023-05-08T15:12:49.168Z,6.17
2023-05-08T15:15:17.204Z,6.25
2023-05-08T15:17:44.805Z,5.60
2023-05-08T15:20:13.573Z,5.50
2023-05-08T15:22:41.656Z,6.20
2023-05-08T15:25:10.478Z,6.45
2023-05-08T15:27:38.094Z,6.68
2023-05-08T15:30:10.485Z,7.30
2023-05-08T15:32:40.208Z,7.78
2023-05-08T15:35:08.534Z,10.52
2023-05-08T15:37:38.307Z,7.72
2023-05-08T15:40:07.198Z,6.88
2023-05-08T15:42:35.480Z,3.55
2023-05-08T15:45:04.068Z,3.40
2023-05-08T15:47:33.266Z,3.08
2023-05-08T15:50:01.076Z,3.22
2023-05-08T15:52:32.506Z,3.20
2023-05-08T15:55:00.065Z,3.72
2023-05-08T15:57:29.849Z,3.38
2023-05-08T15:59:57.570Z,3.30
2023-05-08T16:02:25.353Z,3.00
2023-05-08T16:04:54.521Z,3.80
2023-05-08T16:07:22.596Z,5.03
2023-05-08T16:09:50.273Z,4.28
2023-05-08T16:12:19.753Z,4.18
2023-05-08T16:14:47.628Z,4.47
2023-05-08T16:17:15.395Z,4.15
2023-05-08T16:19:42.961Z,4.05
2023-05-08T16:22:13.483Z,3.22
2023-05-08T16:24:41.289Z,4.10
2023-05-08T16:27:08.863Z,3.30
2023-05-08T16:29:36.968Z,3.30
2023-05-08T16:32:04.702Z,4.15
2023-05-08T16:34:32.351Z,3.75
2023-05-08T16:36:59.993Z,3.72
2023-05-08T16:39:29.498Z,5.03
2023-05-08T16:41:58.067Z,4.10
2023-05-08T16:44:25.621Z,3.85
2023-05-08T16:46:53.364Z,3.88
2023-05-08T16:49:21.042Z,3.90
2023-05-08T16:51:48.681Z,4.22
2023-05-08T16:54:17.985Z,4.22
2023-05-08T16:56:47.506Z,4.10
2023-05-08T16:59:15.121Z,4.10
2023-05-08T17:01:42.927Z,4.72
2023-05-08T17:04:12.475Z,5.43
2023-05-08T17:06:40.711Z,5.13
2023-05-08T17:09:08.353Z,3.97
2023-05-08T17:11:36.143Z,4.50
2023-05-08T17:14:05.485Z,4.50
2023-05-08T17:16:33.668Z,5.68
2023-05-08T17:19:01.492Z,4.30
2023-05-08T17:21:30.922Z,4.63
2023-05-08T17:24:00.264Z,4.30
2023-05-08T17:26:28.577Z,4.25
2023-05-08T17:28:56.159Z,4.50
2023-05-08T17:31:25.593Z,4.35
2023-05-08T17:33:53.474Z,3.72
2023-05-08T17:36:21.566Z,5.85
2023-05-08T17:38:50.440Z,4.18
2023-05-08T17:41:18.049Z,3.35
2023-05-08T17:43:45.626Z,3.88
2023-05-08T17:46:14.631Z,3.30
2023-05-08T17:48:43.603Z,3.67
2023-05-08T17:51:13.221Z,5.28
2023-05-08T17:53:41.218Z,3.42
2023-05-08T17:56:09.414Z,4.45
2023-05-08T17:58:38.999Z,3.00
2023-05-08T18:01:07.821Z,3.65
2023-05-08T18:03:38.025Z,2.88
2023-05-08T18:06:07.384Z,2.55
2023-05-08T18:08:35.430Z,2.55
2023-05-08T18:11:03.134Z,2.50
2023-05-08T18:13:31.490Z,2.85
2023-05-08T18:16:01.173Z,2.63
2023-05-08T18:18:29.695Z,2.53
2023-05-08T18:20:57.277Z,2.50
2023-05-08T18:23:26.338Z,2.67
2023-05-08T18:25:55.490Z,2.30
2023-05-08T18:28:24.251Z,2.78
2023-05-08T18:30:51.886Z,2.50
2023-05-08T18:33:19.495Z,3.58
2023-05-08T18:35:48.933Z,2.33
2023-05-08T18:38:17.545Z,2.97
2023-05-08T18:40:47.421Z,2.70
2023-05-08T18:43:15.365Z,3.53
2023-05-08T18:45:46.577Z,2.95
2023-05-08T18:48:14.203Z,3.28
2023-05-08T18:50:41.827Z,2.60
2023-05-08T18:53:09.759Z,4.15
2023-05-08T18:55:37.673Z,3.00
2023-05-08T18:58:07.131Z,3.78
2023-05-08T19:00:35.528Z,2.60
2023-05-08T19:03:03.261Z,2.83
2023-05-08T19:05:31.354Z,2.90
2023-05-08T19:07:59.002Z,2.53
2023-05-08T19:10:26.885Z,3.42
2023-05-08T19:12:54.485Z,4.20
2023-05-08T19:15:24.520Z,4.50
2023-05-08T19:17:52.760Z,3.97
2023-05-08T19:20:20.836Z,3.65
2023-05-08T19:22:48.571Z,3.88
2023-05-08T19:25:17.567Z,3.35
2023-05-08T19:27:45.194Z,4.25
2023-05-08T19:30:13.630Z,3.15
2023-05-08T19:32:43.110Z,7.03
2023-05-08T19:35:12.618Z,5.72
2023-05-08T19:37:41.186Z,3.58
2023-05-08T19:40:10.970Z,3.03
2023-05-08T19:42:39.135Z,3.05
2023-05-08T19:45:08.602Z,3.90
2023-05-08T19:47:36.374Z,4.70
2023-05-08T19:50:07.721Z,3.42
2023-05-08T19:52:35.877Z,5.18
2023-05-08T19:55:03.466Z,3.83
2023-05-08T19:57:31.132Z,3.47
2023-05-08T19:59:58.845Z,3.85
2023-05-08T20:02:26.708Z,3.90
2023-05-08T20:05:18.561Z,3.55
2023-05-08T20:07:44.527Z,3.60
2023-05-08T20:10:12.582Z,3.88
2023-05-08T20:12:40.649Z,3.70
2023-05-08T20:15:09.787Z,3.55
2023-05-08T20:17:37.506Z,3.53
2023-05-08T20:20:06.072Z,3.70
2023-05-08T20:22:33.790Z,4.47
2023-05-08T20:25:04.668Z,4.00
2023-05-08T20:27:32.588Z,4.10
2023-05-08T20:30:01.001Z,3.50
2023-05-08T20:32:28.791Z,4.22
2023-05-08T20:34:56.928Z,4.40
2023-05-08T20:37:25.420Z,4.55
2023-05-08T20:39:53.167Z,3.85
2023-05-08T20:42:22.156Z,4.35
2023-05-08T20:44:49.717Z,5.85
2023-05-08T20:47:18.022Z,5.50
2023-05-08T20:49:46.505Z,5.45
2023-05-08T20:52:14.117Z,6.22
2023-05-08T20:54:44.318Z,4.70
2023-05-08T20:57:12.853Z,6.95
2023-05-08T20:59:41.756Z,6.45
2023-05-08T21:02:09.515Z,5.28
2023-05-08T21:04:38.008Z,5.65
2023-05-08T21:07:06.093Z,5.85
2023-05-08T21:09:33.835Z,5.82
2023-05-08T21:12:02.493Z,7.32
2023-05-08T21:14:31.916Z,6.50
2023-05-08T21:17:01.693Z,6.35
2023-05-08T21:19:31.542Z,6.45
2023-05-08T21:22:00.135Z,6.50
2023-05-08T21:24:27.786Z,7.38
2023-05-08T21:26:56.020Z,6.60
2023-05-08T21:29:23.611Z,7.65
2023-05-08T21:31:51.245Z,8.02
2023-05-08T21:34:21.256Z,7.00
2023-05-08T21:36:49.336Z,7.80
2023-05-08T21:39:16.931Z,8.40
2023-05-08T21:41:48.531Z,7.97
2023-05-08T21:44:16.328Z,8.30
2023-05-08T21:49:37.031Z,8.52
2023-05-08T21:52:04.816Z,7.75
2023-05-08T21:54:32.552Z,7.82
2023-05-08T21:57:03.552Z,8.93
2023-05-08T21:59:31.195Z,8.02
2023-05-08T22:01:58.941Z,8.00
2023-05-08T22:04:26.540Z,9.02
2023-05-08T22:06:55.639Z,8.57
2023-05-08T22:09:23.247Z,9.18
2023-05-08T22:11:50.924Z,9.15
2023-05-08T22:14:18.713Z,8.40
2023-05-08T22:16:47.286Z,8.27
2023-05-08T22:19:15.086Z,8.00
2023-05-08T22:21:43.409Z,8.02
2023-05-08T22:24:14.871Z,7.70
2023-05-08T22:26:42.688Z,7.43
2023-05-08T22:29:10.221Z,6.47
2023-05-08T22:37:22.258Z,9.05
2023-05-08T22:39:51.192Z,8.85
2023-05-08T22:42:19.312Z,8.35
2023-05-08T22:44:46.923Z,9.10
2023-05-08T22:47:15.407Z,8.68
2023-05-08T22:49:43.824Z,9.25
2023-05-08T22:52:11.525Z,8.35
2023-05-08T22:54:43.015Z,7.75
2023-05-08T22:57:11.969Z,7.30
2023-05-08T22:59:40.109Z,6.90
2023-05-08T23:02:07.999Z,7.25
2023-05-08T23:04:36.076Z,7.72
2023-05-08T23:07:04.606Z,8.35
2023-05-08T23:09:33.160Z,7.95
2023-05-08T23:12:00.755Z,8.20
2023-05-08T23:14:29.702Z,8.88
2023-05-08T23:16:57.376Z,8.63
2023-05-08T23:19:25.046Z,9.52
2023-05-08T23:21:52.691Z,10.50
2023-05-08T23:24:20.550Z,10.48
2023-05-08T23:26:49.560Z,9.30
2023-05-08T23:29:17.218Z,9.52
2023-05-08T23:31:46.195Z,9.10
2023-05-08T23:34:13.800Z,9.75
2023-05-08T23:36:41.619Z,10.02
2023-05-08T23:39:12.936Z,10.65
2023-05-08T23:41:40.527Z,12.68
2023-05-08T23:44:08.216Z,11.48
2023-05-08T23:46:36.098Z,13.60
2023-05-08T23:49:05.642Z,13.35
2023-05-08T23:51:34.059Z,15.18
2023-05-08T23:54:03.184Z,15.60
2023-05-08T23:56:30.960Z,13.57
2023-05-08T23:58:58.502Z,13.68
